sensor_id;sensor_type;location;lat;lon;timestamp;temperature;humidity
1413;DHT22;701;52.526;13.408;2023-03-04T00:01:47;3.50;33.70
1413;DHT22;701;52.526;13.408;2023-03-04T00:04:12;3.50;34.50
1413;DHT22;701;52.526;13.408;2023-03-04T00:06:38;3.50;34.80
1413;DHT22;701;52.526;13.408;2023-03-04T00:09:04;3.40;34.60
1413;DHT22;701;52.526;13.408;2023-03-04T00:11:31;3.50;35.00
1413;DHT22;701;52.526;13.408;2023-03-04T00:13:57;3.40;34.80
1413;DHT22;701;52.526;13.408;2023-03-04T00:16:23;3.50;35.20
1413;DHT22;701;52.526;13.408;2023-03-04T00:18:56;3.50;35.70
1413;DHT22;701;52.526;13.408;2023-03-04T00:21:22;3.60;35.80
1413;DHT22;701;52.526;13.408;2023-03-04T00:23:49;3.60;35.20
1413;DHT22;701;52.526;13.408;2023-03-04T00:26:15;3.70;35.60
1413;DHT22;701;52.526;13.408;2023-03-04T00:28:42;3.80;35.30
1413;DHT22;701;52.526;13.408;2023-03-04T00:31:09;3.90;34.40
1413;DHT22;701;52.526;13.408;2023-03-04T00:33:34;3.90;33.90
1413;DHT22;701;52.526;13.408;2023-03-04T00:36:00;4.00;33.60
1413;DHT22;701;52.526;13.408;2023-03-04T00:38:27;4.10;33.30
1413;DHT22;701;52.526;13.408;2023-03-04T00:40:53;4.10;33.00
1413;DHT22;701;52.526;13.408;2023-03-04T00:43:19;4.20;32.80
1413;DHT22;701;52.526;13.408;2023-03-04T00:45:45;4.30;32.40
1413;DHT22;701;52.526;13.408;2023-03-04T00:48:13;4.30;32.00
1413;DHT22;701;52.526;13.408;2023-03-04T00:50:39;4.40;32.10
1413;DHT22;701;52.526;13.408;2023-03-04T00:53:05;4.40;31.80
1413;DHT22;701;52.526;13.408;2023-03-04T00:55:30;4.40;31.70
1413;DHT22;701;52.526;13.408;2023-03-04T00:57:56;4.50;31.40
1413;DHT22;701;52.526;13.408;2023-03-04T01:00:22;4.50;31.10
1413;DHT22;701;52.526;13.408;2023-03-04T01:02:49;4.50;31.00
1413;DHT22;701;52.526;13.408;2023-03-04T01:05:15;4.50;30.80
1413;DHT22;701;52.526;13.408;2023-03-04T01:07:41;4.50;30.70
1413;DHT22;701;52.526;13.408;2023-03-04T01:10:09;4.50;30.50
1413;DHT22;701;52.526;13.408;2023-03-04T01:12:35;4.60;30.50
1413;DHT22;701;52.526;13.408;2023-03-04T01:15:01;4.60;30.20
1413;DHT22;701;52.526;13.408;2023-03-04T01:17:26;4.60;30.10
1413;DHT22;701;52.526;13.408;2023-03-04T01:19:52;4.60;30.70
1413;DHT22;701;52.526;13.408;2023-03-04T01:22:18;4.70;30.00
1413;DHT22;701;52.526;13.408;2023-03-04T01:24:46;4.70;29.80
1413;DHT22;701;52.526;13.408;2023-03-04T01:27:12;4.70;29.60
1413;DHT22;701;52.526;13.408;2023-03-04T01:29:38;4.70;29.70
1413;DHT22;701;52.526;13.408;2023-03-04T01:32:04;4.70;29.60
1413;DHT22;701;52.526;13.408;2023-03-04T01:34:30;4.70;29.60
1413;DHT22;701;52.526;13.408;2023-03-04T01:36:56;4.70;29.60
1413;DHT22;701;52.526;13.408;2023-03-04T01:39:21;4.70;29.60
1413;DHT22;701;52.526;13.408;2023-03-04T01:41:50;4.70;29.60
1413;DHT22;701;52.526;13.408;2023-03-04T01:44:16;4.80;29.60
1413;DHT22;701;52.526;13.408;2023-03-04T01:46:49;4.80;30.00
1413;DHT22;701;52.526;13.408;2023-03-04T01:49:16;4.80;29.50
1413;DHT22;701;52.526;13.408;2023-03-04T01:51:43;4.80;29.50
1413;DHT22;701;52.526;13.408;2023-03-04T01:54:11;4.80;29.50
1413;DHT22;701;52.526;13.408;2023-03-04T01:56:39;4.90;30.00
1413;DHT22;701;52.526;13.408;2023-03-04T01:59:12;4.90;29.60
1413;DHT22;701;52.526;13.408;2023-03-04T02:01:44;4.90;29.40
1413;DHT22;701;52.526;13.408;2023-03-04T02:04:11;4.90;29.50
1413;DHT22;701;52.526;13.408;2023-03-04T02:06:39;5.00;29.50
1413;DHT22;701;52.526;13.408;2023-03-04T02:09:05;5.00;29.30
1413;DHT22;701;52.526;13.408;2023-03-04T02:11:32;5.00;29.40
1413;DHT22;701;52.526;13.408;2023-03-04T02:13:59;5.00;29.30
1413;DHT22;701;52.526;13.408;2023-03-04T02:16:25;5.10;29.30
1413;DHT22;701;52.526;13.408;2023-03-04T02:18:50;5.10;29.30
1413;DHT22;701;52.526;13.408;2023-03-04T02:21:28;5.10;29.30
1413;DHT22;701;52.526;13.408;2023-03-04T02:26:42;5.10;29.40
1413;DHT22;701;52.526;13.408;2023-03-04T02:29:11;5.20;29.50
1413;DHT22;701;52.526;13.408;2023-03-04T02:31:44;5.20;29.60
1413;DHT22;701;52.526;13.408;2023-03-04T02:34:13;5.20;29.60
1413;DHT22;701;52.526;13.408;2023-03-04T02:36:41;5.30;29.70
1413;DHT22;701;52.526;13.408;2023-03-04T02:39:21;5.30;29.60
1413;DHT22;701;52.526;13.408;2023-03-04T02:41:50;5.30;29.60
1413;DHT22;701;52.526;13.408;2023-03-04T02:46:51;5.40;29.60
1413;DHT22;701;52.526;13.408;2023-03-04T02:49:17;5.40;29.60
1413;DHT22;701;52.526;13.408;2023-03-04T02:51:43;5.40;29.60
1413;DHT22;701;52.526;13.408;2023-03-04T02:54:16;5.40;29.60
1413;DHT22;701;52.526;13.408;2023-03-04T02:56:52;5.40;29.60
1413;DHT22;701;52.526;13.408;2023-03-04T02:59:20;5.50;29.60
1413;DHT22;701;52.526;13.408;2023-03-04T03:01:47;5.50;29.70
1413;DHT22;701;52.526;13.408;2023-03-04T03:04:13;5.50;29.60
1413;DHT22;701;52.526;13.408;2023-03-04T03:06:41;5.50;29.60
1413;DHT22;701;52.526;13.408;2023-03-04T03:09:06;5.60;29.70
1413;DHT22;701;52.526;13.408;2023-03-04T03:11:32;5.60;29.70
1413;DHT22;701;52.526;13.408;2023-03-04T03:13:58;5.60;29.70
1413;DHT22;701;52.526;13.408;2023-03-04T03:16:24;5.60;29.70
1413;DHT22;701;52.526;13.408;2023-03-04T03:18:50;5.60;29.60
1413;DHT22;701;52.526;13.408;2023-03-04T03:21:16;5.70;29.70
1413;DHT22;701;52.526;13.408;2023-03-04T03:23:43;5.70;29.80
1413;DHT22;701;52.526;13.408;2023-03-04T03:26:09;5.70;30.50
1413;DHT22;701;52.526;13.408;2023-03-04T03:28:35;5.70;30.00
1413;DHT22;701;52.526;13.408;2023-03-04T03:31:01;5.70;30.10
1413;DHT22;701;52.526;13.408;2023-03-04T03:33:26;5.70;30.10
1413;DHT22;701;52.526;13.408;2023-03-04T03:35:52;5.70;30.40
1413;DHT22;701;52.526;13.408;2023-03-04T03:38:18;5.70;30.40
1413;DHT22;701;52.526;13.408;2023-03-04T03:40:44;5.80;30.40
1413;DHT22;701;52.526;13.408;2023-03-04T03:43:10;5.80;30.50
1413;DHT22;701;52.526;13.408;2023-03-04T03:45:36;5.80;30.50
1413;DHT22;701;52.526;13.408;2023-03-04T03:48:02;5.80;30.50
1413;DHT22;701;52.526;13.408;2023-03-04T03:50:28;5.80;30.40
1413;DHT22;701;52.526;13.408;2023-03-04T03:52:54;5.80;30.30
1413;DHT22;701;52.526;13.408;2023-03-04T03:55:21;5.80;30.20
1413;DHT22;701;52.526;13.408;2023-03-04T03:57:47;5.80;30.30
1413;DHT22;701;52.526;13.408;2023-03-04T04:00:13;5.90;30.30
1413;DHT22;701;52.526;13.408;2023-03-04T04:02:40;5.90;30.20
1413;DHT22;701;52.526;13.408;2023-03-04T04:05:06;5.90;30.30
1413;DHT22;701;52.526;13.408;2023-03-04T04:07:32;5.90;30.30
1413;DHT22;701;52.526;13.408;2023-03-04T04:09:58;5.90;30.30
1413;DHT22;701;52.526;13.408;2023-03-04T04:12:23;5.90;30.40
1413;DHT22;701;52.526;13.408;2023-03-04T04:14:49;5.90;30.30
1413;DHT22;701;52.526;13.408;2023-03-04T04:17:15;5.90;30.30
1413;DHT22;701;52.526;13.408;2023-03-04T04:19:41;5.90;30.50
1413;DHT22;701;52.526;13.408;2023-03-04T04:22:13;5.90;30.50
1413;DHT22;701;52.526;13.408;2023-03-04T04:24:39;6.00;30.50
1413;DHT22;701;52.526;13.408;2023-03-04T04:27:05;6.00;30.50
1413;DHT22;701;52.526;13.408;2023-03-04T04:29:30;6.00;30.40
1413;DHT22;701;52.526;13.408;2023-03-04T04:31:56;6.00;30.40
1413;DHT22;701;52.526;13.408;2023-03-04T04:34:22;6.00;30.40
1413;DHT22;701;52.526;13.408;2023-03-04T04:36:48;6.00;30.20
1413;DHT22;701;52.526;13.408;2023-03-04T04:39:14;6.10;30.20
1413;DHT22;701;52.526;13.408;2023-03-04T04:41:42;6.10;30.20
1413;DHT22;701;52.526;13.408;2023-03-04T04:44:08;6.10;30.30
1413;DHT22;701;52.526;13.408;2023-03-04T04:46:35;6.10;30.10
1413;DHT22;701;52.526;13.408;2023-03-04T04:49:00;6.10;30.00
1413;DHT22;701;52.526;13.408;2023-03-04T04:51:26;6.20;30.00
1413;DHT22;701;52.526;13.408;2023-03-04T04:53:52;6.20;29.90
1413;DHT22;701;52.526;13.408;2023-03-04T04:56:20;6.20;29.90
1413;DHT22;701;52.526;13.408;2023-03-04T04:58:47;6.20;29.90
1413;DHT22;701;52.526;13.408;2023-03-04T05:01:14;6.20;29.80
1413;DHT22;701;52.526;13.408;2023-03-04T05:03:40;6.20;29.70
1413;DHT22;701;52.526;13.408;2023-03-04T05:06:07;6.30;29.50
1413;DHT22;701;52.526;13.408;2023-03-04T05:08:34;6.30;29.50
1413;DHT22;701;52.526;13.408;2023-03-04T05:11:00;6.30;29.50
1413;DHT22;701;52.526;13.408;2023-03-04T05:13:26;6.30;29.50
1413;DHT22;701;52.526;13.408;2023-03-04T05:15:54;6.30;29.50
1413;DHT22;701;52.526;13.408;2023-03-04T05:18:20;6.30;29.50
1413;DHT22;701;52.526;13.408;2023-03-04T05:20:54;6.40;29.50
1413;DHT22;701;52.526;13.408;2023-03-04T05:23:21;6.40;29.50
1413;DHT22;701;52.526;13.408;2023-03-04T05:25:47;6.40;29.50
1413;DHT22;701;52.526;13.408;2023-03-04T05:28:13;6.40;29.60
1413;DHT22;701;52.526;13.408;2023-03-04T05:30:40;6.40;29.60
1413;DHT22;701;52.526;13.408;2023-03-04T05:33:07;6.50;29.60
1413;DHT22;701;52.526;13.408;2023-03-04T05:35:36;6.50;29.60
1413;DHT22;701;52.526;13.408;2023-03-04T05:38:04;6.50;29.60
1413;DHT22;701;52.526;13.408;2023-03-04T05:40:30;6.50;29.60
1413;DHT22;701;52.526;13.408;2023-03-04T05:42:56;6.50;29.60
1413;DHT22;701;52.526;13.408;2023-03-04T05:45:24;6.50;29.60
1413;DHT22;701;52.526;13.408;2023-03-04T05:47:50;6.50;29.60
1413;DHT22;701;52.526;13.408;2023-03-04T05:50:16;6.50;29.60
1413;DHT22;701;52.526;13.408;2023-03-04T05:52:42;6.50;29.60
1413;DHT22;701;52.526;13.408;2023-03-04T05:55:08;6.50;29.80
1413;DHT22;701;52.526;13.408;2023-03-04T05:57:34;6.50;30.00
1413;DHT22;701;52.526;13.408;2023-03-04T05:59:59;6.50;30.10
1413;DHT22;701;52.526;13.408;2023-03-04T06:02:25;6.50;30.20
1413;DHT22;701;52.526;13.408;2023-03-04T06:04:51;6.50;30.40
1413;DHT22;701;52.526;13.408;2023-03-04T06:07:16;6.60;30.50
1413;DHT22;701;52.526;13.408;2023-03-04T06:09:42;6.60;30.70
1413;DHT22;701;52.526;13.408;2023-03-04T06:12:11;6.60;30.80
1413;DHT22;701;52.526;13.408;2023-03-04T06:14:37;6.60;30.90
1413;DHT22;701;52.526;13.408;2023-03-04T06:17:03;6.60;31.10
1413;DHT22;701;52.526;13.408;2023-03-04T06:19:29;6.60;31.30
1413;DHT22;701;52.526;13.408;2023-03-04T06:21:54;6.60;31.40
1413;DHT22;701;52.526;13.408;2023-03-04T06:24:20;6.60;31.50
1413;DHT22;701;52.526;13.408;2023-03-04T06:26:46;6.60;31.50
1413;DHT22;701;52.526;13.408;2023-03-04T06:29:12;6.60;31.70
1413;DHT22;701;52.526;13.408;2023-03-04T06:31:37;6.60;32.00
1413;DHT22;701;52.526;13.408;2023-03-04T06:34:06;6.70;32.20
1413;DHT22;701;52.526;13.408;2023-03-04T06:36:32;6.70;32.30
1413;DHT22;701;52.526;13.408;2023-03-04T06:38:58;6.70;32.40
1413;DHT22;701;52.526;13.408;2023-03-04T06:41:24;6.70;32.60
1413;DHT22;701;52.526;13.408;2023-03-04T06:43:53;6.80;33.40
1413;DHT22;701;52.526;13.408;2023-03-04T06:46:18;6.80;33.20
1413;DHT22;701;52.526;13.408;2023-03-04T06:48:44;6.80;33.70
1413;DHT22;701;52.526;13.408;2023-03-04T06:51:12;6.80;34.00
1413;DHT22;701;52.526;13.408;2023-03-04T06:53:38;6.80;34.00
1413;DHT22;701;52.526;13.408;2023-03-04T06:56:05;6.80;34.00
1413;DHT22;701;52.526;13.408;2023-03-04T06:58:31;6.80;34.00
1413;DHT22;701;52.526;13.408;2023-03-04T07:01:07;6.90;34.40
1413;DHT22;701;52.526;13.408;2023-03-04T07:03:33;6.90;34.90
1413;DHT22;701;52.526;13.408;2023-03-04T07:05:59;6.90;34.80
1413;DHT22;701;52.526;13.408;2023-03-04T07:08:24;6.90;35.10
1413;DHT22;701;52.526;13.408;2023-03-04T07:10:50;7.00;35.00
1413;DHT22;701;52.526;13.408;2023-03-04T07:13:16;7.00;34.80
1413;DHT22;701;52.526;13.408;2023-03-04T07:15:48;7.00;35.60
1413;DHT22;701;52.526;13.408;2023-03-04T07:18:13;7.00;36.00
1413;DHT22;701;52.526;13.408;2023-03-04T07:20:39;7.00;36.10
1413;DHT22;701;52.526;13.408;2023-03-04T07:23:05;6.90;36.70
1413;DHT22;701;52.526;13.408;2023-03-04T07:25:31;6.90;36.60
1413;DHT22;701;52.526;13.408;2023-03-04T07:27:56;7.00;36.50
1413;DHT22;701;52.526;13.408;2023-03-04T07:30:22;7.00;37.70
1413;DHT22;701;52.526;13.408;2023-03-04T07:32:48;7.00;37.40
1413;DHT22;701;52.526;13.408;2023-03-04T07:35:14;7.00;37.20
1413;DHT22;701;52.526;13.408;2023-03-04T07:37:39;7.00;36.70
1413;DHT22;701;52.526;13.408;2023-03-04T07:40:06;7.00;37.40
1413;DHT22;701;52.526;13.408;2023-03-04T07:42:33;7.10;37.60
1413;DHT22;701;52.526;13.408;2023-03-04T07:45:05;7.20;37.30
1413;DHT22;701;52.526;13.408;2023-03-04T07:47:32;7.30;36.90
1413;DHT22;701;52.526;13.408;2023-03-04T07:49:58;7.30;37.00
1413;DHT22;701;52.526;13.408;2023-03-04T07:52:24;7.30;37.20
1413;DHT22;701;52.526;13.408;2023-03-04T07:54:49;7.40;37.50
1413;DHT22;701;52.526;13.408;2023-03-04T07:57:15;7.40;37.40
1413;DHT22;701;52.526;13.408;2023-03-04T07:59:41;7.40;37.60
1413;DHT22;701;52.526;13.408;2023-03-04T08:02:06;7.50;37.30
1413;DHT22;701;52.526;13.408;2023-03-04T08:04:32;7.50;36.50
1413;DHT22;701;52.526;13.408;2023-03-04T08:06:58;7.50;36.80
1413;DHT22;701;52.526;13.408;2023-03-04T08:09:24;7.60;35.60
1413;DHT22;701;52.526;13.408;2023-03-04T08:11:49;7.60;35.40
1413;DHT22;701;52.526;13.408;2023-03-04T08:14:15;7.60;35.00
1413;DHT22;701;52.526;13.408;2023-03-04T08:16:41;7.70;34.70
1413;DHT22;701;52.526;13.408;2023-03-04T08:19:07;7.70;34.70
1413;DHT22;701;52.526;13.408;2023-03-04T08:21:33;7.70;34.70
1413;DHT22;701;52.526;13.408;2023-03-04T08:24:00;7.70;34.30
1413;DHT22;701;52.526;13.408;2023-03-04T08:26:34;7.80;34.30
1413;DHT22;701;52.526;13.408;2023-03-04T08:29:04;7.80;33.50
1413;DHT22;701;52.526;13.408;2023-03-04T08:31:30;7.80;33.70
1413;DHT22;701;52.526;13.408;2023-03-04T08:33:56;7.80;34.30
1413;DHT22;701;52.526;13.408;2023-03-04T08:36:22;7.80;33.00
1413;DHT22;701;52.526;13.408;2023-03-04T08:38:48;7.80;32.70
1413;DHT22;701;52.526;13.408;2023-03-04T08:41:14;7.80;32.10
1413;DHT22;701;52.526;13.408;2023-03-04T08:43:40;7.80;30.40
1413;DHT22;701;52.526;13.408;2023-03-04T08:46:06;7.80;30.40
1413;DHT22;701;52.526;13.408;2023-03-04T08:48:33;7.90;30.50
1413;DHT22;701;52.526;13.408;2023-03-04T08:50:58;8.00;30.50
1413;DHT22;701;52.526;13.408;2023-03-04T08:53:24;8.10;29.60
1413;DHT22;701;52.526;13.408;2023-03-04T08:55:51;8.20;29.20
1413;DHT22;701;52.526;13.408;2023-03-04T08:58:18;8.20;27.20
1413;DHT22;701;52.526;13.408;2023-03-04T09:00:45;8.30;26.60
1413;DHT22;701;52.526;13.408;2023-03-04T09:03:16;8.30;26.10
1413;DHT22;701;52.526;13.408;2023-03-04T09:05:45;8.40;26.10
1413;DHT22;701;52.526;13.408;2023-03-04T09:08:12;8.60;25.70
1413;DHT22;701;52.526;13.408;2023-03-04T09:10:38;8.70;25.00
1413;DHT22;701;52.526;13.408;2023-03-04T09:13:04;8.80;24.10
1413;DHT22;701;52.526;13.408;2023-03-04T09:15:31;8.90;24.10
1413;DHT22;701;52.526;13.408;2023-03-04T09:18:01;8.90;23.80
1413;DHT22;701;52.526;13.408;2023-03-04T09:20:28;9.00;23.10
1413;DHT22;701;52.526;13.408;2023-03-04T09:22:54;9.00;22.70
1413;DHT22;701;52.526;13.408;2023-03-04T09:25:20;9.00;22.50
1413;DHT22;701;52.526;13.408;2023-03-04T09:27:46;9.00;22.50
1413;DHT22;701;52.526;13.408;2023-03-04T09:30:12;9.10;22.50
1413;DHT22;701;52.526;13.408;2023-03-04T09:32:38;9.10;22.50
1413;DHT22;701;52.526;13.408;2023-03-04T09:35:05;9.10;22.30
1413;DHT22;701;52.526;13.408;2023-03-04T09:37:31;9.10;22.50
1413;DHT22;701;52.526;13.408;2023-03-04T09:39:57;9.00;22.20
1413;DHT22;701;52.526;13.408;2023-03-04T09:42:50;9.00;22.10
1413;DHT22;701;52.526;13.408;2023-03-04T09:45:22;9.00;22.50
1413;DHT22;701;52.526;13.408;2023-03-04T09:47:51;9.00;22.50
1413;DHT22;701;52.526;13.408;2023-03-04T09:50:20;9.10;21.90
1413;DHT22;701;52.526;13.408;2023-03-04T09:55:26;9.10;21.40
1413;DHT22;701;52.526;13.408;2023-03-04T09:58:04;9.20;21.30
1413;DHT22;701;52.526;13.408;2023-03-04T10:05:59;9.30;20.90
1413;DHT22;701;52.526;13.408;2023-03-04T10:11:12;9.30;20.80
1413;DHT22;701;52.526;13.408;2023-03-04T10:16:10;9.30;20.80
1413;DHT22;701;52.526;13.408;2023-03-04T10:18:44;9.30;20.80
1413;DHT22;701;52.526;13.408;2023-03-04T10:21:31;9.30;20.80
1413;DHT22;701;52.526;13.408;2023-03-04T10:24:00;9.30;20.70
1413;DHT22;701;52.526;13.408;2023-03-04T10:26:30;9.40;19.60
1413;DHT22;701;52.526;13.408;2023-03-04T10:28:58;9.30;19.80
1413;DHT22;701;52.526;13.408;2023-03-04T10:31:35;9.20;19.50
1413;DHT22;701;52.526;13.408;2023-03-04T10:34:05;9.20;19.20
1413;DHT22;701;52.526;13.408;2023-03-04T10:36:40;9.20;19.60
1413;DHT22;701;52.526;13.408;2023-03-04T10:39:17;9.20;19.40
1413;DHT22;701;52.526;13.408;2023-03-04T10:41:53;9.20;19.60
1413;DHT22;701;52.526;13.408;2023-03-04T10:44:19;9.30;19.40
1413;DHT22;701;52.526;13.408;2023-03-04T10:46:47;9.40;18.30
1413;DHT22;701;52.526;13.408;2023-03-04T10:49:16;9.40;18.10
1413;DHT22;701;52.526;13.408;2023-03-04T10:51:54;9.40;17.90
1413;DHT22;701;52.526;13.408;2023-03-04T10:54:41;9.50;17.20
1413;DHT22;701;52.526;13.408;2023-03-04T10:57:16;9.50;17.20
1413;DHT22;701;52.526;13.408;2023-03-04T11:02:35;9.40;16.30
1413;DHT22;701;52.526;13.408;2023-03-04T11:05:20;9.40;16.30
1413;DHT22;701;52.526;13.408;2023-03-04T11:10:40;9.30;15.70
1413;DHT22;701;52.526;13.408;2023-03-04T11:13:20;9.30;15.90
1413;DHT22;701;52.526;13.408;2023-03-04T11:15:50;9.20;16.20
1413;DHT22;701;52.526;13.408;2023-03-04T11:19:01;9.20;16.40
1413;DHT22;701;52.526;13.408;2023-03-04T11:21:14;9.30;16.40
1413;DHT22;701;52.526;13.408;2023-03-04T11:23:52;9.40;16.60
1413;DHT22;701;52.526;13.408;2023-03-04T11:26:34;9.40;16.50
1413;DHT22;701;52.526;13.408;2023-03-04T11:32:13;9.50;16.20
1413;DHT22;701;52.526;13.408;2023-03-04T11:34:52;9.60;15.40
1413;DHT22;701;52.526;13.408;2023-03-04T11:37:33;9.60;14.80
1413;DHT22;701;52.526;13.408;2023-03-04T11:45:11;9.80;13.70
1413;DHT22;701;52.526;13.408;2023-03-04T11:50:34;9.90;13.80
1413;DHT22;701;52.526;13.408;2023-03-04T11:53:15;9.90;13.80
1413;DHT22;701;52.526;13.408;2023-03-04T12:07:05;9.60;12.80
1413;DHT22;701;52.526;13.408;2023-03-04T12:15:49;9.20;13.00
1413;DHT22;701;52.526;13.408;2023-03-04T12:18:45;9.20;13.40
1413;DHT22;701;52.526;13.408;2023-03-04T12:24:31;9.20;12.40
1413;DHT22;701;52.526;13.408;2023-03-04T12:27:23;9.30;12.50
1413;DHT22;701;52.526;13.408;2023-03-04T12:30:00;9.40;12.10
1413;DHT22;701;52.526;13.408;2023-03-04T12:37:53;9.60;11.30
1413;DHT22;701;52.526;13.408;2023-03-04T12:40:46;9.70;11.00
1413;DHT22;701;52.526;13.408;2023-03-04T12:43:36;9.70;11.10
1413;DHT22;701;52.526;13.408;2023-03-04T12:59:23;9.70;9.70
1413;DHT22;701;52.526;13.408;2023-03-04T13:07:45;9.70;9.40
1413;DHT22;701;52.526;13.408;2023-03-04T13:10:13;9.70;9.10
1413;DHT22;701;52.526;13.408;2023-03-04T13:12:51;9.70;9.40
1413;DHT22;701;52.526;13.408;2023-03-04T13:15:28;9.70;9.20
1413;DHT22;701;52.526;13.408;2023-03-04T13:18:02;9.70;9.10
1413;DHT22;701;52.526;13.408;2023-03-04T13:20:41;9.70;9.10
1413;DHT22;701;52.526;13.408;2023-03-04T13:28:29;9.70;9.10
1413;DHT22;701;52.526;13.408;2023-03-04T13:43:43;9.40;9.80
1413;DHT22;701;52.526;13.408;2023-03-04T13:51:23;9.30;9.70
1413;DHT22;701;52.526;13.408;2023-03-04T13:56:38;9.20;9.60
1413;DHT22;701;52.526;13.408;2023-03-04T14:01:55;9.10;9.60
1413;DHT22;701;52.526;13.408;2023-03-04T14:04:22;9.10;9.60
1413;DHT22;701;52.526;13.408;2023-03-04T14:06:51;9.00;9.60
1413;DHT22;701;52.526;13.408;2023-03-04T14:09:32;9.00;9.70
1413;DHT22;701;52.526;13.408;2023-03-04T14:12:01;9.10;9.60
1413;DHT22;701;52.526;13.408;2023-03-04T14:14:54;9.10;9.60
1413;DHT22;701;52.526;13.408;2023-03-04T14:17:27;9.10;9.60
1413;DHT22;701;52.526;13.408;2023-03-04T14:19:54;9.00;9.50
1413;DHT22;701;52.526;13.408;2023-03-04T14:27:43;8.70;10.30
1413;DHT22;701;52.526;13.408;2023-03-04T14:30:26;8.70;10.60
1413;DHT22;701;52.526;13.408;2023-03-04T14:32:53;8.60;10.60
1413;DHT22;701;52.526;13.408;2023-03-04T14:35:26;8.50;10.80
1413;DHT22;701;52.526;13.408;2023-03-04T14:40:24;8.40;11.10
1413;DHT22;701;52.526;13.408;2023-03-04T14:42:58;8.40;11.30
1413;DHT22;701;52.526;13.408;2023-03-04T14:45:26;8.30;11.50
1413;DHT22;701;52.526;13.408;2023-03-04T14:47:55;8.20;11.60
1413;DHT22;701;52.526;13.408;2023-03-04T14:50:22;8.20;11.80
1413;DHT22;701;52.526;13.408;2023-03-04T14:52:49;8.20;11.90
1413;DHT22;701;52.526;13.408;2023-03-04T14:55:28;8.10;12.00
1413;DHT22;701;52.526;13.408;2023-03-04T15:00:36;8.10;12.40
1413;DHT22;701;52.526;13.408;2023-03-04T15:03:14;8.10;12.70
1413;DHT22;701;52.526;13.408;2023-03-04T15:05:43;8.20;12.60
1413;DHT22;701;52.526;13.408;2023-03-04T15:08:24;8.10;12.70
1413;DHT22;701;52.526;13.408;2023-03-04T15:11:00;8.10;12.30
1413;DHT22;701;52.526;13.408;2023-03-04T15:13:41;8.10;12.50
1413;DHT22;701;52.526;13.408;2023-03-04T15:16:09;8.10;12.40
1413;DHT22;701;52.526;13.408;2023-03-04T15:18:35;8.10;12.20
1413;DHT22;701;52.526;13.408;2023-03-04T15:21:26;8.10;12.20
1413;DHT22;701;52.526;13.408;2023-03-04T15:23:51;8.10;12.20
1413;DHT22;701;52.526;13.408;2023-03-04T15:26:17;8.10;11.80
1413;DHT22;701;52.526;13.408;2023-03-04T15:28:42;8.10;11.40
1413;DHT22;701;52.526;13.408;2023-03-04T15:31:20;8.20;11.40
1413;DHT22;701;52.526;13.408;2023-03-04T15:33:46;8.10;10.90
1413;DHT22;701;52.526;13.408;2023-03-04T15:36:15;8.10;11.10
1413;DHT22;701;52.526;13.408;2023-03-04T15:38:47;8.10;10.70
1413;DHT22;701;52.526;13.408;2023-03-04T15:41:21;8.00;11.00
1413;DHT22;701;52.526;13.408;2023-03-04T15:43:48;8.00;11.00
1413;DHT22;701;52.526;13.408;2023-03-04T15:46:14;8.00;11.30
1413;DHT22;701;52.526;13.408;2023-03-04T15:48:40;8.00;11.30
1413;DHT22;701;52.526;13.408;2023-03-04T15:51:20;7.90;11.40
1413;DHT22;701;52.526;13.408;2023-03-04T15:53:51;7.90;11.50
1413;DHT22;701;52.526;13.408;2023-03-04T15:56:32;7.80;11.60
1413;DHT22;701;52.526;13.408;2023-03-04T16:01:26;7.70;11.80
1413;DHT22;701;52.526;13.408;2023-03-04T16:03:52;7.60;12.00
1413;DHT22;701;52.526;13.408;2023-03-04T16:06:18;7.70;12.10
1413;DHT22;701;52.526;13.408;2023-03-04T16:08:46;7.60;12.00
1413;DHT22;701;52.526;13.408;2023-03-04T16:11:19;7.60;12.10
1413;DHT22;701;52.526;13.408;2023-03-04T16:13:45;7.60;12.00
1413;DHT22;701;52.526;13.408;2023-03-04T16:16:11;7.60;12.10
1413;DHT22;701;52.526;13.408;2023-03-04T16:18:37;7.60;12.20
1413;DHT22;701;52.526;13.408;2023-03-04T16:21:04;7.50;12.10
1413;DHT22;701;52.526;13.408;2023-03-04T16:23:32;7.50;12.30
1413;DHT22;701;52.526;13.408;2023-03-04T16:26:02;7.50;12.20
1413;DHT22;701;52.526;13.408;2023-03-04T16:28:29;7.40;11.90
1413;DHT22;701;52.526;13.408;2023-03-04T16:30:54;7.30;12.00
1413;DHT22;701;52.526;13.408;2023-03-04T16:33:20;7.30;12.10
1413;DHT22;701;52.526;13.408;2023-03-04T16:35:46;7.30;12.30
1413;DHT22;701;52.526;13.408;2023-03-04T16:38:24;7.30;12.20
1413;DHT22;701;52.526;13.408;2023-03-04T16:40:51;7.30;12.20
1413;DHT22;701;52.526;13.408;2023-03-04T16:43:17;7.20;12.10
1413;DHT22;701;52.526;13.408;2023-03-04T16:45:43;7.20;12.10
1413;DHT22;701;52.526;13.408;2023-03-04T16:48:09;7.20;12.10
1413;DHT22;701;52.526;13.408;2023-03-04T16:50:37;7.20;12.10
1413;DHT22;701;52.526;13.408;2023-03-04T16:53:03;7.10;12.10
1413;DHT22;701;52.526;13.408;2023-03-04T16:55:30;7.10;12.00
1413;DHT22;701;52.526;13.408;2023-03-04T16:57:57;7.10;12.10
1413;DHT22;701;52.526;13.408;2023-03-04T17:00:24;7.10;12.10
1413;DHT22;701;52.526;13.408;2023-03-04T17:02:57;7.10;12.10
1413;DHT22;701;52.526;13.408;2023-03-04T17:05:26;7.10;12.10
1413;DHT22;701;52.526;13.408;2023-03-04T17:07:52;7.10;12.10
1413;DHT22;701;52.526;13.408;2023-03-04T17:10:18;7.00;12.10
1413;DHT22;701;52.526;13.408;2023-03-04T17:12:44;7.00;12.10
1413;DHT22;701;52.526;13.408;2023-03-04T17:15:11;7.00;12.00
1413;DHT22;701;52.526;13.408;2023-03-04T17:17:38;7.00;12.00
1413;DHT22;701;52.526;13.408;2023-03-04T17:20:05;7.00;12.00
1413;DHT22;701;52.526;13.408;2023-03-04T17:22:32;7.00;12.00
1413;DHT22;701;52.526;13.408;2023-03-04T17:24:58;6.90;12.00
1413;DHT22;701;52.526;13.408;2023-03-04T17:27:24;6.90;12.10
1413;DHT22;701;52.526;13.408;2023-03-04T17:29:49;6.90;12.30
1413;DHT22;701;52.526;13.408;2023-03-04T17:32:18;6.90;12.50
1413;DHT22;701;52.526;13.408;2023-03-04T17:34:44;6.90;13.10
1413;DHT22;701;52.526;13.408;2023-03-04T17:37:10;6.90;12.60
1413;DHT22;701;52.526;13.408;2023-03-04T17:39:36;6.90;12.60
1413;DHT22;701;52.526;13.408;2023-03-04T17:42:02;6.90;12.70
1413;DHT22;701;52.526;13.408;2023-03-04T17:44:28;6.90;12.70
1413;DHT22;701;52.526;13.408;2023-03-04T17:46:53;6.90;12.70
1413;DHT22;701;52.526;13.408;2023-03-04T17:49:19;6.90;12.80
1413;DHT22;701;52.526;13.408;2023-03-04T17:51:45;6.90;12.80
1413;DHT22;701;52.526;13.408;2023-03-04T17:54:11;6.90;12.90
1413;DHT22;701;52.526;13.408;2023-03-04T17:56:38;6.90;13.00
1413;DHT22;701;52.526;13.408;2023-03-04T17:59:06;6.90;13.00
1413;DHT22;701;52.526;13.408;2023-03-04T18:01:32;6.90;13.10
1413;DHT22;701;52.526;13.408;2023-03-04T18:03:58;6.80;13.10
1413;DHT22;701;52.526;13.408;2023-03-04T18:06:24;6.80;13.30
1413;DHT22;701;52.526;13.408;2023-03-04T18:08:51;6.80;13.30
1413;DHT22;701;52.526;13.408;2023-03-04T18:11:20;6.80;13.50
1413;DHT22;701;52.526;13.408;2023-03-04T18:13:47;6.80;13.60
1413;DHT22;701;52.526;13.408;2023-03-04T18:16:14;6.80;13.70
1413;DHT22;701;52.526;13.408;2023-03-04T18:18:43;6.80;13.70
1413;DHT22;701;52.526;13.408;2023-03-04T18:21:09;6.80;13.70
1413;DHT22;701;52.526;13.408;2023-03-04T18:23:35;6.80;13.80
1413;DHT22;701;52.526;13.408;2023-03-04T18:26:01;6.80;13.90
1413;DHT22;701;52.526;13.408;2023-03-04T18:28:29;6.70;14.00
1413;DHT22;701;52.526;13.408;2023-03-04T18:30:55;6.70;14.10